createdAt,value
2022-08-28T00:00:37.118Z,91.23
2022-08-28T00:03:05.767Z,90.82
2022-08-28T00:05:33.897Z,90.22
2022-08-28T00:08:00.536Z,90.30
2022-08-28T00:10:28.528Z,90.60
2022-08-28T00:12:56.396Z,91.13
2022-08-28T00:15:29.229Z,92.12
2022-08-28T00:18:16.484Z,91.22
2022-08-28T00:21:04.038Z,90.59
2022-08-28T00:23:50.896Z,90.78
2022-08-28T00:26:56.265Z,91.67
2022-08-28T00:29:43.761Z,91.26
2022-08-28T00:32:30.651Z,92.71
2022-08-28T00:34:57.784Z,93.24
2022-08-28T00:37:24.776Z,92.80
2022-08-28T00:39:51.565Z,92.10
2022-08-28T00:42:18.654Z,91.94
2022-08-28T00:44:45.339Z,92.00
2022-08-28T00:47:12.533Z,91.56
2022-08-28T00:49:47.962Z,92.06
2022-08-28T00:52:16.027Z,91.65
2022-08-28T00:54:59.646Z,91.76
2022-08-28T00:57:38.936Z,91.60
2022-08-28T01:00:09.097Z,91.44
2022-08-28T01:02:35.789Z,92.45
2022-08-28T01:05:03.969Z,92.11
2022-08-28T01:07:30.499Z,91.63
2022-08-28T01:09:57.449Z,93.15
2022-08-28T01:12:29.796Z,92.63
2022-08-28T01:15:00.526Z,92.54
2022-08-28T01:17:29.628Z,91.30
2022-08-28T01:20:01.072Z,91.39
2022-08-28T01:22:40.384Z,90.97
2022-08-28T01:25:14.727Z,91.02
2022-08-28T01:27:41.919Z,92.17
2022-08-28T01:30:12.081Z,91.86
2022-08-28T01:32:41.560Z,91.97
2022-08-28T01:35:11.896Z,91.77
2022-08-28T01:37:38.831Z,93.42
2022-08-28T01:40:07.654Z,92.74
2022-08-28T01:42:43.012Z,92.35
2022-08-28T01:45:13.570Z,92.77
2022-08-28T01:47:42.433Z,93.39
2022-08-28T01:50:12.211Z,92.58
2022-08-28T01:52:39.480Z,93.46
2022-08-28T01:55:06.956Z,93.56
2022-08-28T01:57:33.580Z,94.34
2022-08-28T02:00:00.160Z,94.66
2022-08-28T02:02:26.724Z,94.04
2022-08-28T02:04:54.138Z,93.93
2022-08-28T02:07:20.841Z,94.79
2022-08-28T02:09:48.023Z,94.15
2022-08-28T02:12:14.520Z,94.13
2022-08-28T02:14:41.453Z,94.15
2022-08-28T02:17:08.346Z,93.24
2022-08-28T02:19:34.850Z,93.30
2022-08-28T02:22:01.692Z,93.66
2022-08-28T02:24:28.273Z,93.29
2022-08-28T02:26:55.106Z,93.88
2022-08-28T02:29:21.915Z,93.94
2022-08-28T02:31:48.573Z,94.51
2022-08-28T02:34:15.752Z,94.53
2022-08-28T02:36:42.556Z,94.12
2022-08-28T02:39:09.717Z,95.20
2022-08-28T02:41:36.882Z,95.42
2022-08-28T02:44:05.013Z,94.70
2022-08-28T02:46:31.699Z,95.00
2022-08-28T02:48:58.230Z,94.73
2022-08-28T02:51:25.761Z,94.67
2022-08-28T02:53:52.635Z,94.78
2022-08-28T02:56:19.672Z,94.82
2022-08-28T02:58:46.433Z,94.72
2022-08-28T03:01:13.376Z,94.77
2022-08-28T03:03:41.298Z,94.86
2022-08-28T03:06:10.362Z,95.21
2022-08-28T03:08:37.430Z,95.09
2022-08-28T03:11:04.188Z,95.39
2022-08-28T03:13:31.680Z,95.54
2022-08-28T03:15:58.784Z,95.24
2022-08-28T03:18:27.076Z,95.23
2022-08-28T03:20:54.124Z,95.13
2022-08-28T03:23:26.534Z,94.89
2022-08-28T03:25:55.783Z,95.71
2022-08-28T03:28:22.676Z,95.25
2022-08-28T03:30:50.574Z,95.41
2022-08-28T03:33:17.614Z,95.54
2022-08-28T03:35:44.663Z,95.59
2022-08-28T03:38:11.564Z,95.79
2022-08-28T03:40:40.544Z,95.11
2022-08-28T03:43:07.142Z,95.06
2022-08-28T03:45:34.107Z,95.95
2022-08-28T03:48:01.772Z,95.81
2022-08-28T03:50:28.507Z,96.66
2022-08-28T03:52:56.403Z,96.08
2022-08-28T03:55:22.946Z,95.70
2022-08-28T03:57:50.814Z,96.35
2022-08-28T04:00:19.064Z,97.15
2022-08-28T04:02:46.144Z,96.44
2022-08-28T04:05:14.228Z,96.62
2022-08-28T04:07:40.765Z,96.84
2022-08-28T04:10:08.319Z,97.97
2022-08-28T04:12:35.932Z,97.31
2022-08-28T04:15:07.071Z,96.50
2022-08-28T04:17:34.292Z,97.73
2022-08-28T04:20:01.166Z,96.69
2022-08-28T04:22:29.649Z,96.85
2022-08-28T04:24:56.342Z,96.06
2022-08-28T04:27:22.794Z,96.47
2022-08-28T04:29:49.850Z,95.79
2022-08-28T04:32:16.753Z,96.01
2022-08-28T04:34:43.418Z,96.52
2022-08-28T04:37:10.844Z,97.07
2022-08-28T04:39:37.601Z,97.51
2022-08-28T04:42:04.775Z,97.62
2022-08-28T04:44:32.147Z,97.37
2022-08-28T04:46:58.950Z,96.84
2022-08-28T04:49:26.069Z,96.29
2022-08-28T04:51:52.729Z,96.72
2022-08-28T04:54:20.460Z,96.98
2022-08-28T04:56:47.057Z,97.14
2022-08-28T04:59:13.996Z,97.51
2022-08-28T05:01:42.818Z,97.53
2022-08-28T05:04:11.811Z,97.25
2022-08-28T05:06:46.451Z,97.53
2022-08-28T05:09:20.520Z,99.71
2022-08-28T05:11:49.433Z,99.54
2022-08-28T05:14:16.515Z,98.88
2022-08-28T05:16:49.753Z,98.88
2022-08-28T05:19:18.508Z,99.16
2022-08-28T05:21:45.738Z,100.00
2022-08-28T05:24:14.055Z,99.80
2022-08-28T05:26:41.018Z,100.00
2022-08-28T05:29:10.152Z,99.44
2022-08-28T05:31:38.993Z,100.00
2022-08-28T05:34:08.482Z,100.00
2022-08-28T05:36:37.441Z,99.66
2022-08-28T05:39:07.057Z,98.39
2022-08-28T05:41:34.494Z,98.71
2022-08-28T05:44:06.618Z,98.85
2022-08-28T05:46:35.857Z,98.40
2022-08-28T05:49:04.780Z,98.70
2022-08-28T05:51:35.408Z,99.49
2022-08-28T05:54:03.617Z,99.41
2022-08-28T05:56:34.857Z,98.98
2022-08-28T05:59:03.188Z,99.36
2022-08-28T06:01:32.640Z,99.64
2022-08-28T06:04:03.109Z,99.51
2022-08-28T06:06:30.517Z,98.24
2022-08-28T06:08:59.459Z,99.69
2022-08-28T06:11:30.419Z,99.39
2022-08-28T06:14:01.726Z,99.58
2022-08-28T06:16:32.774Z,99.11
2022-08-28T06:19:00.334Z,98.64
2022-08-28T06:21:29.441Z,97.44
2022-08-28T06:23:56.431Z,96.73
2022-08-28T06:26:23.717Z,96.78
2022-08-28T06:28:51.169Z,98.08
2022-08-28T06:31:24.260Z,97.24
2022-08-28T06:33:56.255Z,96.58
2022-08-28T06:36:25.211Z,96.56
2022-08-28T06:38:52.000Z,97.93
2022-08-28T06:41:19.555Z,97.08
2022-08-28T06:43:46.391Z,96.06
2022-08-28T06:46:13.056Z,94.98
2022-08-28T06:48:40.045Z,93.94
2022-08-28T06:51:09.455Z,94.79
2022-08-28T06:53:38.195Z,94.46
2022-08-28T06:56:11.136Z,93.35
2022-08-28T06:58:43.304Z,91.62
2022-08-28T07:01:24.482Z,91.50
2022-08-28T07:03:53.705Z,92.33
2022-08-28T07:06:22.650Z,92.51
2022-08-28T07:08:50.940Z,92.81
2022-08-28T07:11:25.999Z,91.82
2022-08-28T07:13:54.313Z,91.71
2022-08-28T07:16:24.138Z,90.57
2022-08-28T07:18:51.270Z,91.10
2022-08-28T07:21:17.797Z,91.32
2022-08-28T07:23:46.001Z,90.85
2022-08-28T07:26:17.548Z,89.83
2022-08-28T07:28:45.382Z,89.93
2022-08-28T07:31:16.084Z,89.32
2022-08-28T07:33:43.508Z,89.29
2022-08-28T07:36:16.025Z,88.75
2022-08-28T07:38:58.871Z,87.95
2022-08-28T07:41:31.630Z,87.42
2022-08-28T07:44:34.547Z,85.41
2022-08-28T07:47:06.231Z,84.36
2022-08-28T07:49:35.797Z,83.86
2022-08-28T07:52:02.947Z,82.83
2022-08-28T07:54:29.474Z,79.75
2022-08-28T07:56:56.341Z,77.29
2022-08-28T07:59:22.851Z,77.27
2022-08-28T08:01:52.114Z,76.59
2022-08-28T08:04:20.701Z,75.97
2022-08-28T08:06:47.273Z,76.33
2022-08-28T08:09:16.471Z,78.93
2022-08-28T08:11:44.158Z,76.32
2022-08-28T08:14:12.275Z,77.16
2022-08-28T08:16:42.227Z,76.69
2022-08-28T08:19:14.084Z,76.17
2022-08-28T08:21:46.644Z,77.20
2022-08-28T08:24:20.756Z,77.83
2022-08-28T08:26:58.980Z,76.64
2022-08-28T08:29:35.902Z,76.21
2022-08-28T08:32:07.745Z,73.82
2022-08-28T08:34:38.785Z,73.38
2022-08-28T08:37:06.330Z,71.27
2022-08-28T08:39:36.881Z,71.56
2022-08-28T08:42:07.389Z,71.08
2022-08-28T08:44:40.643Z,70.56
2022-08-28T08:47:43.498Z,70.10
2022-08-28T08:50:22.561Z,70.20
2022-08-28T08:53:12.516Z,71.07
2022-08-28T08:55:46.672Z,69.01
2022-08-28T08:58:35.026Z,66.19
2022-08-28T09:01:14.613Z,63.90
2022-08-28T09:03:55.882Z,63.83
2022-08-28T09:06:44.524Z,64.39
2022-08-28T09:09:18.411Z,64.85
2022-08-28T09:11:58.334Z,63.40
2022-08-28T09:14:37.455Z,61.87
2022-08-28T09:17:07.025Z,61.77
2022-08-28T09:19:33.773Z,64.02
2022-08-28T09:22:02.241Z,63.53
2022-08-28T09:24:38.016Z,64.48
2022-08-28T09:27:25.407Z,63.62
2022-08-28T09:29:59.128Z,64.64
2022-08-28T09:32:35.443Z,60.88
2022-08-28T09:35:25.340Z,57.63
2022-08-28T09:37:52.118Z,55.03
2022-08-28T09:40:49.585Z,56.08
2022-08-28T09:43:27.483Z,55.38
2022-08-28T09:46:17.399Z,54.37
2022-08-28T09:48:45.409Z,55.02
2022-08-28T09:51:21.209Z,50.70
2022-08-28T09:53:50.676Z,50.75
2022-08-28T09:56:36.746Z,49.25
2022-08-28T09:59:07.859Z,48.67
2022-08-28T10:01:51.734Z,47.65
2022-08-28T10:04:33.024Z,46.44
2022-08-28T10:07:18.968Z,47.88
2022-08-28T10:10:20.197Z,47.00
2022-08-28T10:13:10.099Z,45.88
2022-08-28T10:15:55.771Z,45.42
2022-08-28T10:18:31.787Z,44.22
2022-08-28T10:21:09.552Z,42.87
2022-08-28T10:24:13.781Z,41.89
2022-08-28T10:26:47.241Z,41.52
2022-08-28T10:29:35.041Z,40.87
2022-08-28T10:32:34.744Z,41.39
2022-08-28T10:35:13.633Z,43.18
2022-08-28T10:37:55.565Z,42.33
2022-08-28T10:40:32.690Z,42.81
2022-08-28T10:43:08.692Z,42.11
2022-08-28T10:45:35.879Z,40.65
2022-08-28T10:48:17.513Z,40.05
2022-08-28T10:50:52.592Z,41.06
2022-08-28T10:53:50.714Z,40.06
2022-08-28T10:56:40.589Z,39.19
2022-08-28T10:59:07.082Z,39.54
2022-08-28T11:01:38.484Z,38.08
2022-08-28T11:04:24.694Z,38.27
2022-08-28T11:07:15.378Z,38.51
2022-08-28T11:09:46.051Z,37.56
2022-08-28T11:12:20.015Z,38.24
2022-08-28T11:14:51.032Z,37.94
2022-08-28T11:17:27.667Z,37.45
2022-08-28T11:20:07.084Z,36.19
2022-08-28T11:22:39.796Z,36.91
2022-08-28T11:25:13.689Z,37.75
2022-08-28T11:28:00.463Z,39.01
2022-08-28T11:30:33.024Z,39.59
2022-08-28T11:33:02.635Z,38.32
2022-08-28T11:35:29.362Z,39.48
2022-08-28T11:37:58.003Z,40.32
2022-08-28T11:40:32.077Z,39.55
2022-08-28T11:43:14.579Z,38.13
2022-08-28T11:45:45.704Z,39.77
2022-08-28T11:48:22.771Z,38.09
2022-08-28T11:50:57.220Z,38.20
2022-08-28T11:53:26.707Z,37.48
2022-08-28T11:56:31.387Z,36.42
2022-08-28T11:59:24.731Z,37.25
2022-08-28T12:01:52.104Z,37.39
2022-08-28T12:04:22.162Z,36.62
2022-08-28T12:07:12.007Z,35.20
2022-08-28T12:09:45.267Z,35.33
2022-08-28T12:12:22.244Z,35.02
2022-08-28T12:14:54.942Z,35.91
2022-08-28T12:17:21.830Z,35.25
2022-08-28T12:19:52.465Z,36.93
2022-08-28T12:22:26.480Z,37.14
2022-08-28T12:25:03.199Z,37.04
2022-08-28T12:27:31.727Z,36.68
2022-08-28T12:30:00.742Z,37.25
2022-08-28T12:32:46.304Z,36.67
2022-08-28T12:35:30.167Z,35.30
2022-08-28T12:37:57.594Z,36.18
2022-08-28T12:40:28.818Z,37.06
2022-08-28T12:43:05.339Z,36.52
2022-08-28T12:45:39.639Z,36.72
2022-08-28T12:48:29.251Z,35.89
2022-08-28T12:51:09.055Z,32.54
2022-08-28T12:53:43.501Z,31.87
2022-08-28T12:56:11.901Z,31.93
2022-08-28T12:58:40.440Z,31.61
2022-08-28T13:01:10.115Z,30.54
2022-08-28T13:03:53.302Z,29.57
2022-08-28T13:06:32.639Z,32.39
2022-08-28T13:09:14.287Z,33.08
2022-08-28T13:11:50.753Z,31.43
2022-08-28T13:14:41.816Z,30.07
2022-08-28T13:17:09.373Z,31.31
2022-08-28T13:19:37.771Z,32.13
2022-08-28T13:22:29.192Z,32.58
2022-08-28T13:25:01.607Z,31.74
2022-08-28T13:27:29.158Z,31.31
2022-08-28T13:30:08.257Z,32.38
2022-08-28T13:32:39.237Z,32.13
2022-08-28T13:35:16.574Z,33.29
2022-08-28T13:37:50.260Z,30.81
2022-08-28T13:40:53.223Z,31.20
2022-08-28T13:43:10.187Z,29.81
2022-08-28T13:45:44.198Z,29.66
2022-08-28T13:48:37.463Z,27.96
2022-08-28T13:51:11.243Z,28.72
2022-08-28T13:53:39.793Z,28.05
2022-08-28T13:56:06.691Z,28.45
2022-08-28T13:58:33.272Z,29.37
2022-08-28T14:01:00.942Z,29.04
2022-08-28T14:03:37.969Z,28.82
2022-08-28T14:06:14.075Z,28.51
2022-08-28T14:08:43.205Z,29.26
2022-08-28T14:11:12.656Z,29.66
2022-08-28T14:13:40.247Z,29.62
2022-08-28T14:16:07.823Z,29.17
2022-08-28T14:18:35.229Z,27.34
2022-08-28T14:21:05.145Z,26.46
2022-08-28T14:23:33.703Z,26.84
2022-08-28T14:26:00.197Z,26.75
2022-08-28T14:28:26.939Z,26.76
2022-08-28T14:30:53.447Z,26.60
2022-08-28T14:33:20.723Z,28.08
2022-08-28T14:35:48.757Z,28.87
2022-08-28T14:38:16.310Z,28.89
2022-08-28T14:40:44.055Z,28.84
2022-08-28T14:43:12.406Z,27.31
2022-08-28T14:45:43.342Z,27.06
2022-08-28T14:48:10.368Z,26.30
2022-08-28T14:50:42.423Z,25.74
2022-08-28T14:53:09.672Z,26.81
2022-08-28T14:55:54.279Z,26.51
2022-08-28T14:58:21.068Z,24.77
2022-08-28T15:00:50.049Z,25.37
2022-08-28T15:03:18.536Z,26.76
2022-08-28T15:05:46.058Z,24.27
2022-08-28T15:08:16.595Z,24.49
2022-08-28T15:10:44.031Z,25.13
2022-08-28T15:13:11.345Z,25.18
2022-08-28T15:15:41.183Z,25.12
2022-08-28T15:18:10.145Z,25.19
2022-08-28T15:20:42.174Z,26.09
2022-08-28T15:23:10.274Z,26.06
2022-08-28T15:25:37.248Z,25.03
2022-08-28T15:28:04.794Z,24.75
2022-08-28T15:30:31.962Z,25.34
2022-08-28T15:33:01.206Z,26.04
2022-08-28T15:35:28.271Z,26.08
2022-08-28T15:37:54.777Z,24.80
2022-08-28T15:40:40.043Z,25.21
2022-08-28T15:43:06.775Z,25.22
2022-08-28T15:45:37.469Z,25.27
2022-08-28T15:48:04.276Z,25.77
2022-08-28T15:50:30.934Z,25.72
2022-08-28T15:52:57.717Z,25.55
2022-08-28T15:55:27.241Z,25.72
2022-08-28T15:57:55.021Z,25.75
2022-08-28T16:00:22.488Z,25.05
2022-08-28T16:02:49.103Z,24.82
2022-08-28T16:05:16.211Z,24.76
2022-08-28T16:07:42.945Z,25.18
2022-08-28T16:10:13.316Z,24.88
2022-08-28T16:12:40.819Z,25.21
2022-08-28T16:15:08.797Z,25.22
2022-08-28T16:17:36.601Z,24.71
2022-08-28T16:20:06.570Z,24.36
2022-08-28T16:22:39.367Z,25.04
2022-08-28T16:25:06.686Z,25.55
2022-08-28T16:27:33.671Z,24.27
2022-08-28T16:30:00.892Z,24.15
2022-08-28T16:32:27.714Z,24.18
2022-08-28T16:34:54.490Z,24.24
2022-08-28T16:37:21.532Z,24.90
2022-08-28T16:39:53.772Z,24.44
2022-08-28T16:42:20.683Z,25.11
2022-08-28T16:44:47.250Z,24.74
2022-08-28T16:47:14.480Z,26.17
2022-08-28T16:49:40.951Z,26.50
2022-08-28T16:52:07.605Z,26.25
2022-08-28T16:54:34.301Z,27.22
2022-08-28T16:57:01.935Z,26.56
2022-08-28T16:59:28.767Z,26.20
2022-08-28T17:01:55.798Z,25.79
2022-08-28T17:04:22.654Z,26.15
2022-08-28T17:06:49.380Z,26.24
2022-08-28T17:09:15.836Z,27.02
2022-08-28T17:11:42.352Z,27.93
2022-08-28T17:14:10.978Z,28.58
2022-08-28T17:16:38.441Z,29.11
2022-08-28T17:19:04.980Z,29.76
2022-08-28T17:21:50.881Z,30.15
2022-08-28T17:24:17.840Z,30.33
2022-08-28T17:26:44.819Z,31.07
2022-08-28T17:29:11.772Z,32.72
2022-08-28T17:31:38.732Z,31.95
2022-08-28T17:34:07.282Z,31.80
2022-08-28T17:36:36.929Z,32.40
2022-08-28T17:39:08.868Z,32.39
2022-08-28T17:41:35.867Z,32.74
2022-08-28T17:44:03.236Z,32.91
2022-08-28T17:46:33.991Z,32.80
2022-08-28T17:49:05.215Z,33.46
2022-08-28T17:51:42.753Z,33.49
2022-08-28T17:54:21.364Z,32.76
2022-08-28T17:56:48.452Z,32.96
2022-08-28T17:59:16.024Z,33.55
2022-08-28T18:01:45.087Z,34.44
2022-08-28T18:04:12.967Z,34.61
2022-08-28T18:06:40.159Z,33.62
2022-08-28T18:09:09.880Z,34.51
2022-08-28T18:11:37.386Z,35.75
2022-08-28T18:14:04.853Z,34.46
2022-08-28T18:16:33.383Z,34.89
2022-08-28T18:19:01.528Z,34.94
2022-08-28T18:21:29.139Z,34.74
2022-08-28T18:23:56.011Z,35.17
2022-08-28T18:26:23.457Z,34.40
2022-08-28T18:28:50.825Z,34.79
2022-08-28T18:31:18.412Z,34.58
2022-08-28T18:33:45.149Z,35.02
2022-08-28T18:36:13.828Z,35.92
2022-08-28T18:38:40.922Z,36.35
2022-08-28T18:41:09.401Z,36.37
2022-08-28T18:43:36.794Z,36.28
2022-08-28T18:46:05.322Z,36.72
2022-08-28T18:48:32.945Z,37.32
2022-08-28T18:50:59.682Z,36.95
2022-08-28T18:53:26.527Z,37.77
2022-08-28T18:55:54.951Z,38.69
2022-08-28T18:58:23.647Z,39.50
2022-08-28T19:00:51.020Z,39.63
2022-08-28T19:03:17.487Z,39.40
2022-08-28T19:05:44.333Z,40.19
2022-08-28T19:08:11.352Z,40.26
2022-08-28T19:10:38.588Z,40.29
2022-08-28T19:13:06.642Z,40.37
2022-08-28T19:15:35.809Z,40.48
2022-08-28T19:18:04.093Z,40.44
2022-08-28T19:20:31.840Z,40.90
2022-08-28T19:22:59.344Z,41.38
2022-08-28T19:25:29.201Z,42.05
2022-08-28T19:28:01.303Z,42.07
2022-08-28T19:30:31.295Z,42.89
2022-08-28T19:32:57.830Z,42.84
2022-08-28T19:35:25.230Z,43.36
2022-08-28T19:37:55.615Z,43.99
2022-08-28T19:40:23.153Z,43.91
2022-08-28T19:42:49.921Z,43.88
2022-08-28T19:45:17.875Z,44.04
2022-08-28T19:47:44.979Z,43.75
2022-08-28T19:50:13.819Z,44.54
2022-08-28T19:52:41.333Z,44.85
2022-08-28T19:55:08.373Z,45.03
2022-08-28T19:57:35.027Z,45.58
2022-08-28T20:00:02.438Z,45.69
2022-08-28T20:02:30.868Z,45.66
2022-08-28T20:04:57.429Z,45.63
2022-08-28T20:07:24.846Z,46.11
2022-08-28T20:09:52.332Z,46.47
2022-08-28T20:12:19.792Z,46.84
2022-08-28T20:14:46.688Z,47.19
2022-08-28T20:17:13.847Z,47.20
2022-08-28T20:19:40.446Z,47.80
2022-08-28T20:22:06.969Z,48.50
2022-08-28T20:24:37.292Z,48.29
2022-08-28T20:27:04.230Z,49.14
2022-08-28T20:29:31.258Z,50.20
2022-08-28T20:31:58.002Z,49.52
2022-08-28T20:34:24.578Z,49.72
2022-08-28T20:36:51.972Z,50.99
2022-08-28T20:39:20.342Z,52.96
2022-08-28T20:41:47.929Z,52.74
2022-08-28T20:44:16.102Z,53.86
2022-08-28T20:46:43.569Z,53.34
2022-08-28T20:49:11.535Z,54.13
2022-08-28T20:51:53.932Z,55.95
2022-08-28T20:54:27.023Z,55.47
2022-08-28T20:56:54.356Z,55.91
2022-08-28T20:59:21.706Z,55.03
2022-08-28T21:01:51.746Z,55.88
2022-08-28T21:04:19.022Z,56.12
2022-08-28T21:06:49.015Z,56.64
2022-08-28T21:09:17.639Z,56.15
2022-08-28T21:11:44.719Z,57.57
2022-08-28T21:14:11.713Z,58.78
2022-08-28T21:16:40.062Z,58.81
2022-08-28T21:19:15.733Z,58.58
2022-08-28T21:21:44.179Z,58.24
2022-08-28T21:24:13.468Z,58.02
2022-08-28T21:26:43.252Z,56.82
2022-08-28T21:29:11.354Z,56.53
2022-08-28T21:31:41.146Z,57.55
2022-08-28T21:34:09.344Z,57.02
2022-08-28T21:36:38.706Z,57.22
2022-08-28T21:39:05.967Z,56.84
2022-08-28T21:41:33.165Z,57.81
2022-08-28T21:43:59.937Z,58.41
2022-08-28T21:46:27.745Z,59.42
2022-08-28T21:48:56.199Z,59.39
2022-08-28T21:51:25.118Z,58.87
2022-08-28T21:53:54.304Z,59.07
2022-08-28T21:56:23.890Z,58.78
2022-08-28T21:58:53.146Z,58.29
2022-08-28T22:01:21.250Z,57.89
2022-08-28T22:03:48.081Z,57.42
2022-08-28T22:06:18.371Z,56.70
2022-08-28T22:08:46.589Z,56.91
2022-08-28T22:11:15.708Z,56.69
2022-08-28T22:13:43.552Z,57.33
2022-08-28T22:16:10.659Z,57.68
2022-08-28T22:18:37.789Z,57.13
2022-08-28T22:21:23.692Z,57.38
2022-08-28T22:23:51.033Z,57.35
2022-08-28T22:26:20.814Z,56.49
2022-08-28T22:28:47.922Z,56.59
2022-08-28T22:31:14.653Z,55.95
2022-08-28T22:33:42.827Z,56.51
2022-08-28T22:36:11.002Z,56.19
2022-08-28T22:38:39.253Z,56.10
2022-08-28T22:41:07.331Z,56.32
2022-08-28T22:43:34.984Z,56.43
2022-08-28T22:46:01.866Z,55.96
2022-08-28T22:48:28.376Z,56.12
2022-08-28T22:51:04.624Z,56.67
2022-08-28T22:53:31.874Z,56.79
2022-08-28T22:56:00.418Z,57.04
2022-08-28T22:58:32.837Z,57.28
2022-08-28T23:01:02.268Z,57.50
2022-08-28T23:03:29.038Z,57.00
2022-08-28T23:05:56.198Z,56.77
2022-08-28T23:08:22.970Z,56.89
2022-08-28T23:10:59.596Z,56.40
2022-08-28T23:13:27.434Z,56.51
2022-08-28T23:15:54.327Z,56.78
2022-08-28T23:18:21.054Z,56.79
2022-08-28T23:20:47.741Z,56.53
2022-08-28T23:23:17.300Z,56.86
2022-08-28T23:25:44.537Z,56.87
2022-08-28T23:28:11.664Z,56.62
2022-08-28T23:30:38.954Z,56.78
2022-08-28T23:33:08.496Z,58.39
2022-08-28T23:35:36.290Z,58.92
2022-08-28T23:38:04.842Z,58.46
2022-08-28T23:40:33.744Z,58.31
2022-08-28T23:43:01.001Z,58.06
2022-08-28T23:45:27.633Z,58.17
2022-08-28T23:47:55.244Z,57.78
2022-08-28T23:50:23.092Z,58.20
2022-08-28T23:52:50.428Z,57.74
2022-08-28T23:55:19.537Z,58.42
2022-08-28T23:57:46.205Z,58.23
